createdAt,value
2017-11-25T00:00:36.975Z,1007.40
2017-11-25T00:01:36.926Z,1007.41
2017-11-25T00:02:36.984Z,1007.42
2017-11-25T00:03:36.868Z,1007.41
2017-11-25T00:04:36.894Z,1007.40
2017-11-25T00:05:36.814Z,1007.42
2017-11-25T00:06:36.809Z,1007.38
2017-11-25T00:07:36.753Z,1007.37
2017-11-25T00:08:36.822Z,1007.45
2017-11-25T00:09:36.697Z,1007.39
2017-11-25T00:10:36.733Z,1007.46
2017-11-25T00:11:36.638Z,1007.43
2017-11-25T00:12:36.647Z,1007.47
2017-11-25T00:13:36.583Z,1007.52
2017-11-25T00:14:36.656Z,1007.51
2017-11-25T00:15:36.525Z,1007.47
2017-11-25T00:16:36.569Z,1007.49
2017-11-25T00:17:36.463Z,1007.48
2017-11-25T00:18:36.481Z,1007.50
2017-11-25T00:19:36.411Z,1007.48
2017-11-25T00:20:36.511Z,1007.45
2017-11-25T00:21:36.354Z,1007.41
2017-11-25T00:22:36.407Z,1007.38
2017-11-25T00:23:36.291Z,1007.42
2017-11-25T00:24:36.317Z,1007.44
2017-11-25T00:25:36.241Z,1007.42
2017-11-25T00:26:36.233Z,1007.42
2017-11-25T00:27:36.179Z,1007.46
2017-11-25T00:28:36.252Z,1007.47
2017-11-25T00:29:36.126Z,1007.44
2017-11-25T00:30:36.160Z,1007.38
2017-11-25T00:31:36.061Z,1007.37
2017-11-25T00:32:36.070Z,1007.40
2017-11-25T00:33:36.006Z,1007.40
2017-11-25T00:34:36.078Z,1007.39
2017-11-25T00:35:35.950Z,1007.36
2017-11-25T00:36:35.996Z,1007.32
2017-11-25T00:37:35.890Z,1007.29
2017-11-25T00:38:35.901Z,1007.27
2017-11-25T00:39:35.847Z,1007.29
2017-11-25T00:40:35.917Z,1007.31
2017-11-25T00:41:35.779Z,1007.33
2017-11-25T00:42:35.827Z,1007.28
2017-11-25T00:43:35.717Z,1007.29
2017-11-25T00:44:35.738Z,1007.33
2017-11-25T00:45:35.664Z,1007.29
2017-11-25T00:46:35.658Z,1007.32
2017-11-25T00:47:35.602Z,1007.31
2017-11-25T00:48:35.668Z,1007.27
2017-11-25T00:49:35.547Z,1007.28
2017-11-25T00:50:35.588Z,1007.27
2017-11-25T00:51:35.492Z,1007.26
2017-11-25T00:52:35.487Z,1007.24
2017-11-25T00:53:35.431Z,1007.19
2017-11-25T00:54:35.505Z,1007.25
2017-11-25T00:55:35.379Z,1007.22
2017-11-25T00:56:35.415Z,1007.24
2017-11-25T00:57:35.311Z,1007.26
2017-11-25T00:58:35.327Z,1007.22
2017-11-25T00:59:35.259Z,1007.27
2017-11-25T01:00:35.341Z,1007.22
2017-11-25T01:01:35.196Z,1007.19
2017-11-25T01:02:35.250Z,1007.19
2017-11-25T01:03:35.137Z,1007.21
2017-11-25T01:04:35.166Z,1007.21
2017-11-25T01:05:35.081Z,1007.24
2017-11-25T01:06:35.076Z,1007.25
2017-11-25T01:07:35.027Z,1007.28
2017-11-25T01:08:35.098Z,1007.24
2017-11-25T01:09:34.967Z,1007.24
2017-11-25T01:10:35.009Z,1007.20
2017-11-25T01:11:34.915Z,1007.19
2017-11-25T01:12:34.917Z,1007.21
2017-11-25T01:13:34.846Z,1007.21
2017-11-25T01:14:34.931Z,1007.24
2017-11-25T01:15:34.789Z,1007.21
2017-11-25T01:16:34.838Z,1007.22
2017-11-25T01:17:34.727Z,1007.18
2017-11-25T01:18:34.758Z,1007.19
2017-11-25T01:19:34.669Z,1007.19
2017-11-25T01:20:34.666Z,1007.19
2017-11-25T01:21:34.616Z,1007.20
2017-11-25T01:22:34.678Z,1007.20
2017-11-25T01:23:34.556Z,1007.18
2017-11-25T01:24:34.592Z,1007.19
2017-11-25T01:25:34.496Z,1007.19
2017-11-25T01:26:34.505Z,1007.16
2017-11-25T01:27:34.441Z,1007.13
2017-11-25T01:28:34.515Z,1007.14
2017-11-25T01:29:34.389Z,1007.08
2017-11-25T01:30:34.429Z,1007.09
2017-11-25T01:31:34.321Z,1007.11
2017-11-25T01:32:34.340Z,1007.13
2017-11-25T01:33:34.263Z,1007.11
2017-11-25T01:34:34.354Z,1007.14
2017-11-25T01:35:34.206Z,1007.11
2017-11-25T01:36:34.271Z,1007.12
2017-11-25T01:37:34.146Z,1007.10
2017-11-25T01:38:34.172Z,1007.11
2017-11-25T01:39:34.090Z,1007.10
2017-11-25T01:40:34.086Z,1007.08
2017-11-25T01:41:34.030Z,1007.08
2017-11-25T01:42:34.107Z,1007.04
2017-11-25T01:43:33.971Z,1007.04
2017-11-25T01:44:34.020Z,1006.98
2017-11-25T01:45:33.920Z,1007.00
2017-11-25T01:46:33.920Z,1006.95
2017-11-25T01:47:33.853Z,1006.91
2017-11-25T01:48:33.935Z,1006.90
2017-11-25T01:49:33.802Z,1006.90
2017-11-25T01:50:33.852Z,1006.88
2017-11-25T01:51:33.735Z,1006.90
2017-11-25T01:52:33.758Z,1006.78
2017-11-25T01:53:33.681Z,1006.74
2017-11-25T01:54:33.674Z,1006.72
2017-11-25T01:55:33.625Z,1006.71
2017-11-25T01:56:33.684Z,1006.70
2017-11-25T01:57:33.560Z,1006.70
2017-11-25T01:58:33.592Z,1006.65
2017-11-25T01:59:33.503Z,1006.63
2017-11-25T02:00:33.504Z,1006.62
2017-11-25T02:01:33.452Z,1006.64
2017-11-25T02:02:33.516Z,1006.65
2017-11-25T02:03:33.381Z,1006.66
2017-11-25T02:04:33.426Z,1006.61
2017-11-25T02:05:33.329Z,1006.66
2017-11-25T02:06:33.343Z,1006.66
2017-11-25T02:07:33.266Z,1006.68
2017-11-25T02:08:33.254Z,1006.71
2017-11-25T02:09:33.231Z,1006.73
2017-11-25T02:10:33.269Z,1006.66
2017-11-25T02:11:33.153Z,1006.62
2017-11-25T02:12:33.177Z,1006.54
2017-11-25T02:13:33.093Z,1006.57
2017-11-25T02:14:33.091Z,1006.54
2017-11-25T02:15:33.035Z,1006.58
2017-11-25T02:16:33.106Z,1006.57
2017-11-25T02:17:32.977Z,1006.49
2017-11-25T02:18:33.014Z,1006.51
2017-11-25T02:19:32.916Z,1006.45
2017-11-25T02:20:32.924Z,1006.46
2017-11-25T02:21:32.866Z,1006.41
2017-11-25T02:22:32.938Z,1006.39
2017-11-25T02:23:32.799Z,1006.37
2017-11-25T02:24:32.851Z,1006.38
2017-11-25T02:25:32.739Z,1006.38
2017-11-25T02:26:32.765Z,1006.41
2017-11-25T02:27:32.677Z,1006.48
2017-11-25T02:28:32.676Z,1006.51
2017-11-25T02:29:32.621Z,1006.57
2017-11-25T02:30:32.690Z,1006.60
2017-11-25T02:31:32.566Z,1006.58
2017-11-25T02:32:32.601Z,1006.59
2017-11-25T02:33:32.501Z,1006.63
2017-11-25T02:34:32.512Z,1006.60
2017-11-25T02:35:32.445Z,1006.58
2017-11-25T02:36:32.525Z,1006.59
2017-11-25T02:37:32.388Z,1006.54
2017-11-25T02:38:32.434Z,1006.50
2017-11-25T02:39:32.333Z,1006.48
2017-11-25T02:40:32.345Z,1006.46
2017-11-25T02:41:32.268Z,1006.44
2017-11-25T02:42:32.261Z,1006.46
2017-11-25T02:43:32.205Z,1006.48
2017-11-25T02:44:32.272Z,1006.46
2017-11-25T02:45:32.153Z,1006.50
2017-11-25T02:46:32.185Z,1006.43
2017-11-25T02:47:32.090Z,1006.36
2017-11-25T02:48:32.093Z,1006.39
2017-11-25T02:49:32.033Z,1006.36
2017-11-25T02:50:32.106Z,1006.39
2017-11-25T02:51:31.967Z,1006.34
2017-11-25T02:52:32.024Z,1006.35
2017-11-25T02:53:31.911Z,1006.32
2017-11-25T02:54:31.930Z,1006.27
2017-11-25T02:55:31.853Z,1006.25
2017-11-25T02:56:31.846Z,1006.22
2017-11-25T02:57:31.798Z,1006.19
2017-11-25T02:58:31.855Z,1006.23
2017-11-25T02:59:31.735Z,1006.20
2017-11-25T03:00:31.771Z,1006.23
2017-11-25T03:01:31.677Z,1006.20
2017-11-25T03:02:31.682Z,1006.22
2017-11-25T03:03:31.618Z,1006.21
2017-11-25T03:04:31.695Z,1006.19
2017-11-25T03:05:31.559Z,1006.20
2017-11-25T03:06:31.605Z,1006.19
2017-11-25T03:07:31.499Z,1006.22
2017-11-25T03:08:31.517Z,1006.18
2017-11-25T03:09:31.444Z,1006.21
2017-11-25T03:10:31.429Z,1006.19
2017-11-25T03:11:31.381Z,1006.22
2017-11-25T03:12:31.443Z,1006.18
2017-11-25T03:13:31.335Z,1006.09
2017-11-25T03:14:31.352Z,1006.11
2017-11-25T03:15:31.261Z,1006.17
2017-11-25T03:16:31.268Z,1006.15
2017-11-25T03:17:31.210Z,1006.16
2017-11-25T03:18:31.284Z,1006.20
2017-11-25T03:19:31.143Z,1006.23
2017-11-25T03:20:31.191Z,1006.13
2017-11-25T03:21:31.194Z,1006.13
2017-11-25T03:22:31.103Z,1006.14
2017-11-25T03:23:31.031Z,1006.09
2017-11-25T03:24:31.015Z,1006.07
2017-11-25T03:25:30.971Z,1006.06
2017-11-25T03:26:31.027Z,1006.10
2017-11-25T03:27:30.918Z,1006.18
2017-11-25T03:28:30.940Z,1006.21
2017-11-25T03:29:30.854Z,1006.22
2017-11-25T03:30:30.848Z,1006.15
2017-11-25T03:31:30.793Z,1006.12
2017-11-25T03:32:30.865Z,1006.05
2017-11-25T03:33:30.730Z,1006.03
2017-11-25T03:34:30.775Z,1006.03
2017-11-25T03:35:30.676Z,1006.03
2017-11-25T03:36:30.684Z,1005.97
2017-11-25T03:37:30.619Z,1005.99
2017-11-25T03:38:30.701Z,1006.00
2017-11-25T03:39:30.560Z,1005.96
2017-11-25T03:40:30.613Z,1006.01
2017-11-25T03:41:30.513Z,1006.04
2017-11-25T03:42:30.526Z,1005.97
2017-11-25T03:43:30.445Z,1005.98
2017-11-25T03:44:30.433Z,1005.96
2017-11-25T03:45:30.382Z,1005.96
2017-11-25T03:46:30.449Z,1005.92
2017-11-25T03:47:30.334Z,1005.91
2017-11-25T03:48:30.365Z,1005.89
2017-11-25T03:49:30.265Z,1005.87
2017-11-25T03:50:30.271Z,1005.87
2017-11-25T03:51:30.212Z,1005.90
2017-11-25T03:52:30.285Z,1005.84
2017-11-25T03:53:30.147Z,1005.88
2017-11-25T03:54:30.194Z,1005.91
2017-11-25T03:55:30.089Z,1005.89
2017-11-25T03:56:30.108Z,1005.92
2017-11-25T03:57:30.035Z,1005.94
2017-11-25T03:58:30.023Z,1005.92
2017-11-25T03:59:29.977Z,1005.88
2017-11-25T04:00:30.033Z,1005.86
2017-11-25T04:01:29.912Z,1005.84
2017-11-25T04:02:29.947Z,1005.86
2017-11-25T04:03:29.858Z,1005.89
2017-11-25T04:04:29.870Z,1005.85
2017-11-25T04:05:29.817Z,1005.86
2017-11-25T04:06:29.871Z,1005.85
2017-11-25T04:07:29.738Z,1005.84
2017-11-25T04:08:29.784Z,1005.80
2017-11-25T04:09:29.681Z,1005.81
2017-11-25T04:10:29.696Z,1005.81
2017-11-25T04:11:29.620Z,1005.81
2017-11-25T04:12:29.608Z,1005.81
2017-11-25T04:13:29.562Z,1005.82
2017-11-25T04:14:29.622Z,1005.86
2017-11-25T04:15:29.506Z,1005.90
2017-11-25T04:16:29.531Z,1005.94
2017-11-25T04:17:29.439Z,1005.92
2017-11-25T04:18:29.443Z,1005.93
2017-11-25T04:19:29.383Z,1005.93
2017-11-25T04:20:29.458Z,1005.97
2017-11-25T04:21:29.331Z,1006.00
2017-11-25T04:22:29.367Z,1006.00
2017-11-25T04:23:29.268Z,1005.99
2017-11-25T04:24:29.278Z,1005.95
2017-11-25T04:25:29.205Z,1005.92
2017-11-25T04:26:29.193Z,1005.94
2017-11-25T04:27:29.147Z,1005.94
2017-11-25T04:28:29.206Z,1005.93
2017-11-25T04:29:29.094Z,1005.93
2017-11-25T04:30:29.128Z,1005.88
2017-11-25T04:31:29.032Z,1005.89
2017-11-25T04:32:29.028Z,1005.84
2017-11-25T04:33:28.975Z,1005.82
2017-11-25T04:34:29.040Z,1005.86
2017-11-25T04:35:28.913Z,1005.84
2017-11-25T04:36:28.954Z,1005.84
2017-11-25T04:37:28.857Z,1005.79
2017-11-25T04:38:28.872Z,1005.75
2017-11-25T04:39:28.797Z,1005.68
2017-11-25T04:40:28.779Z,1005.68
2017-11-25T04:41:28.733Z,1005.63
2017-11-25T04:42:28.793Z,1005.58
2017-11-25T04:43:28.676Z,1005.57
2017-11-25T04:44:28.701Z,1005.54
2017-11-25T04:45:28.614Z,1005.57
2017-11-25T04:46:28.616Z,1005.57
2017-11-25T04:47:28.559Z,1005.57
2017-11-25T04:48:28.627Z,1005.59
2017-11-25T04:49:28.500Z,1005.64
2017-11-25T04:50:28.540Z,1005.64
2017-11-25T04:51:28.441Z,1005.68
2017-11-25T04:52:28.452Z,1005.71
2017-11-25T04:53:28.385Z,1005.76
2017-11-25T04:54:28.462Z,1005.75
2017-11-25T04:55:28.326Z,1005.77
2017-11-25T04:56:28.376Z,1005.74
2017-11-25T04:57:28.266Z,1005.75
2017-11-25T04:58:28.493Z,1005.74
2017-11-25T04:59:28.211Z,1005.70
2017-11-25T05:00:28.198Z,1005.67
2017-11-25T05:01:28.151Z,1005.69
2017-11-25T05:02:28.213Z,1005.68
2017-11-25T05:03:28.091Z,1005.68
2017-11-25T05:04:28.124Z,1005.71
2017-11-25T05:05:28.035Z,1005.68
2017-11-25T05:06:28.037Z,1005.67
2017-11-25T05:07:27.967Z,1005.66
2017-11-25T05:08:28.050Z,1005.68
2017-11-25T05:09:27.912Z,1005.70
2017-11-25T05:10:27.987Z,1005.69
2017-11-25T05:11:27.854Z,1005.68
2017-11-25T05:12:27.873Z,1005.69
2017-11-25T05:13:27.797Z,1005.66
2017-11-25T05:14:27.786Z,1005.66
2017-11-25T05:15:27.735Z,1005.74
2017-11-25T05:16:27.796Z,1005.77
2017-11-25T05:17:27.678Z,1005.79
2017-11-25T05:18:27.709Z,1005.76
2017-11-25T05:19:27.616Z,1005.70
2017-11-25T05:20:27.621Z,1005.74
2017-11-25T05:21:27.557Z,1005.69
2017-11-25T05:22:27.633Z,1005.73
2017-11-25T05:23:27.501Z,1005.74
2017-11-25T05:24:27.545Z,1005.82
2017-11-25T05:25:27.441Z,1005.77
2017-11-25T05:26:27.458Z,1005.77
2017-11-25T05:27:27.380Z,1005.79
2017-11-25T05:28:27.382Z,1005.83
2017-11-25T05:29:27.322Z,1005.84
2017-11-25T05:30:27.382Z,1005.87
2017-11-25T05:31:27.266Z,1005.86
2017-11-25T05:32:27.295Z,1005.86
2017-11-25T05:33:27.205Z,1005.86
2017-11-25T05:34:27.214Z,1005.82
2017-11-25T05:35:27.145Z,1005.84
2017-11-25T05:36:27.219Z,1005.81
2017-11-25T05:37:27.088Z,1005.83
2017-11-25T05:38:27.133Z,1005.83
2017-11-25T05:39:27.031Z,1005.81
2017-11-25T05:40:27.040Z,1005.79
2017-11-25T05:41:26.971Z,1005.79
2017-11-25T05:42:26.955Z,1005.78
2017-11-25T05:43:26.911Z,1005.81
2017-11-25T05:44:26.968Z,1005.82
2017-11-25T05:45:26.852Z,1005.81
2017-11-25T05:46:26.882Z,1005.82
2017-11-25T05:47:26.786Z,1005.82
2017-11-25T05:48:26.790Z,1005.82
2017-11-25T05:49:26.732Z,1005.83
2017-11-25T05:50:26.806Z,1005.87
2017-11-25T05:51:26.678Z,1005.90
2017-11-25T05:52:26.717Z,1005.91
2017-11-25T05:53:26.616Z,1005.92
2017-11-25T05:54:26.629Z,1005.99
2017-11-25T05:55:26.554Z,1006.00
2017-11-25T05:56:26.540Z,1006.02
2017-11-25T05:57:26.499Z,1006.07
2017-11-25T05:58:26.554Z,1006.03
2017-11-25T05:59:26.437Z,1006.03
2017-11-25T06:00:26.466Z,1006.05
2017-11-25T06:01:26.381Z,1006.03
2017-11-25T06:02:26.378Z,1006.00
2017-11-25T06:03:26.314Z,1006.02
2017-11-25T06:04:26.387Z,1005.99
2017-11-25T06:05:26.261Z,1006.00
2017-11-25T06:06:26.303Z,1006.05
2017-11-25T06:07:26.201Z,1006.03
2017-11-25T06:08:26.213Z,1006.01
2017-11-25T06:09:26.137Z,1006.00
2017-11-25T06:10:26.235Z,1006.08
2017-11-25T06:11:26.084Z,1006.04
2017-11-25T06:12:26.146Z,1006.05
2017-11-25T06:13:26.025Z,1006.05
2017-11-25T06:14:26.050Z,1006.01
2017-11-25T06:15:25.962Z,1006.02
2017-11-25T06:16:25.960Z,1005.97
2017-11-25T06:17:25.902Z,1005.96
2017-11-25T06:18:25.991Z,1005.94
2017-11-25T06:19:25.847Z,1006.01
2017-11-25T06:20:25.892Z,1005.99
2017-11-25T06:21:25.787Z,1005.99
2017-11-25T06:22:25.815Z,1006.01
2017-11-25T06:23:25.725Z,1006.03
2017-11-25T06:24:25.816Z,1006.03
2017-11-25T06:25:25.666Z,1006.04
2017-11-25T06:26:25.728Z,1006.06
2017-11-25T06:27:25.609Z,1006.05
2017-11-25T06:28:25.636Z,1006.05
2017-11-25T06:29:25.546Z,1006.09
2017-11-25T06:30:25.551Z,1006.13
2017-11-25T06:31:25.493Z,1006.14
2017-11-25T06:32:25.564Z,1006.17
2017-11-25T06:33:25.432Z,1006.25
2017-11-25T06:34:25.476Z,1006.19
2017-11-25T06:35:25.372Z,1006.19
2017-11-25T06:36:25.389Z,1006.23
2017-11-25T06:37:25.310Z,1006.19
2017-11-25T06:38:25.296Z,1006.24
2017-11-25T06:39:25.250Z,1006.28
2017-11-25T06:40:25.311Z,1006.27
2017-11-25T06:41:25.196Z,1006.25
2017-11-25T06:42:25.221Z,1006.30
2017-11-25T06:43:25.136Z,1006.29
2017-11-25T06:44:25.133Z,1006.28
2017-11-25T06:45:25.076Z,1006.31
2017-11-25T06:46:25.149Z,1006.28
2017-11-25T06:47:25.023Z,1006.30
2017-11-25T06:48:25.060Z,1006.32
2017-11-25T06:49:24.957Z,1006.30
2017-11-25T06:50:24.970Z,1006.35
2017-11-25T06:51:24.895Z,1006.35
2017-11-25T06:52:24.881Z,1006.38
2017-11-25T06:53:24.838Z,1006.38
2017-11-25T06:54:24.897Z,1006.42
2017-11-25T06:55:24.777Z,1006.43
2017-11-25T06:56:24.807Z,1006.41
2017-11-25T06:57:24.713Z,1006.40
2017-11-25T06:58:24.716Z,1006.41
2017-11-25T06:59:24.655Z,1006.46
2017-11-25T07:00:24.731Z,1006.44
2017-11-25T07:01:24.596Z,1006.46
2017-11-25T07:02:24.642Z,1006.44
2017-11-25T07:03:24.534Z,1006.46
2017-11-25T07:04:24.552Z,1006.49
2017-11-25T07:05:24.476Z,1006.53
2017-11-25T07:06:24.465Z,1006.50
2017-11-25T07:07:24.412Z,1006.51
2017-11-25T07:08:24.478Z,1006.56
2017-11-25T07:09:24.356Z,1006.53
2017-11-25T07:10:24.394Z,1006.58
2017-11-25T07:11:24.298Z,1006.54
2017-11-25T07:12:24.300Z,1006.59
2017-11-25T07:13:24.240Z,1006.61
2017-11-25T07:14:24.316Z,1006.64
2017-11-25T07:15:24.178Z,1006.64
2017-11-25T07:16:24.227Z,1006.66
2017-11-25T07:17:24.118Z,1006.67
2017-11-25T07:18:24.136Z,1006.71
2017-11-25T07:19:24.055Z,1006.74
2017-11-25T07:20:24.047Z,1006.78
2017-11-25T07:21:23.992Z,1006.77
2017-11-25T07:22:24.061Z,1006.75
2017-11-25T07:23:23.936Z,1006.78
2017-11-25T07:24:23.974Z,1006.78
2017-11-25T07:25:23.878Z,1006.81
2017-11-25T07:26:23.896Z,1006.88
2017-11-25T07:27:23.813Z,1006.85
2017-11-25T07:28:23.897Z,1006.89
2017-11-25T07:29:23.753Z,1006.89
2017-11-25T07:30:23.820Z,1006.88
2017-11-25T07:31:23.693Z,1006.88
2017-11-25T07:32:23.724Z,1006.88
2017-11-25T07:33:23.627Z,1006.93
2017-11-25T07:34:23.650Z,1006.92
2017-11-25T07:35:23.575Z,1006.90
2017-11-25T07:36:23.646Z,1006.87
2017-11-25T07:37:23.510Z,1006.91
2017-11-25T07:38:23.557Z,1006.92
2017-11-25T07:39:23.457Z,1006.92
2017-11-25T07:40:23.473Z,1006.93
2017-11-25T07:41:23.389Z,1006.98
2017-11-25T07:42:23.379Z,1007.01
2017-11-25T07:43:23.337Z,1007.06
2017-11-25T07:44:23.398Z,1007.08
2017-11-25T07:45:23.270Z,1007.12
2017-11-25T07:46:23.306Z,1007.10
2017-11-25T07:47:23.207Z,1007.12
2017-11-25T07:48:23.221Z,1007.16
2017-11-25T07:49:23.153Z,1007.10
2017-11-25T07:50:23.132Z,1007.08
2017-11-25T07:51:23.104Z,1007.10
2017-11-25T07:52:23.142Z,1007.12
2017-11-25T07:53:23.037Z,1007.13
2017-11-25T07:54:23.058Z,1007.17
2017-11-25T07:55:22.966Z,1007.21
2017-11-25T07:56:22.968Z,1007.21
2017-11-25T07:57:22.906Z,1007.24
2017-11-25T07:58:22.982Z,1007.28
2017-11-25T07:59:22.844Z,1007.30
2017-11-25T08:00:22.894Z,1007.25
2017-11-25T08:01:22.784Z,1007.26
2017-11-25T08:02:22.805Z,1007.28
2017-11-25T08:03:22.723Z,1007.25
2017-11-25T08:04:22.716Z,1007.29
2017-11-25T08:05:22.675Z,1007.30
2017-11-25T08:06:22.733Z,1007.32
2017-11-25T08:07:22.603Z,1007.32
2017-11-25T08:08:22.640Z,1007.37
2017-11-25T08:09:22.545Z,1007.37
2017-11-25T08:10:22.553Z,1007.36
2017-11-25T08:11:22.484Z,1007.40
2017-11-25T08:12:22.464Z,1007.45
2017-11-25T08:13:22.427Z,1007.43
2017-11-25T08:14:22.479Z,1007.43
2017-11-25T08:15:22.362Z,1007.48
2017-11-25T08:16:22.389Z,1007.47
2017-11-25T08:17:22.301Z,1007.48
2017-11-25T08:18:22.309Z,1007.43
2017-11-25T08:19:22.243Z,1007.48
2017-11-25T08:20:22.313Z,1007.51
2017-11-25T08:21:22.179Z,1007.43
2017-11-25T08:22:22.227Z,1007.48
2017-11-25T08:23:22.143Z,1007.49
2017-11-25T08:24:22.141Z,1007.52
2017-11-25T08:25:22.065Z,1007.56
2017-11-25T08:26:22.050Z,1007.62
2017-11-25T08:27:22.001Z,1007.62
2017-11-25T08:28:22.064Z,1007.69
2017-11-25T08:29:21.945Z,1007.72
2017-11-25T08:30:21.973Z,1007.77
2017-11-25T08:31:21.877Z,1007.74
2017-11-25T08:32:21.888Z,1007.71
2017-11-25T08:33:21.820Z,1007.73
2017-11-25T08:34:21.902Z,1007.72
2017-11-25T08:35:21.759Z,1007.73
2017-11-25T08:36:21.811Z,1007.73
2017-11-25T08:37:21.699Z,1007.76
2017-11-25T08:38:21.723Z,1007.75
2017-11-25T08:39:21.641Z,1007.74
2017-11-25T08:40:21.634Z,1007.77
2017-11-25T08:41:21.579Z,1007.80
2017-11-25T08:42:21.648Z,1007.85
2017-11-25T08:43:21.517Z,1007.84
2017-11-25T08:44:21.563Z,1007.83
2017-11-25T08:45:21.459Z,1007.88
2017-11-25T08:46:21.427Z,1007.85
2017-11-25T08:47:21.442Z,1007.90
2017-11-25T08:48:21.380Z,1007.87
2017-11-25T08:49:21.335Z,1007.87
2017-11-25T08:50:21.393Z,1007.86
2017-11-25T08:51:21.279Z,1007.88
2017-11-25T08:52:21.313Z,1007.91
2017-11-25T08:53:21.212Z,1007.94
2017-11-25T08:54:21.218Z,1007.95
2017-11-25T08:55:21.159Z,1007.97
2017-11-25T08:56:21.232Z,1008.03
2017-11-25T08:57:21.097Z,1007.99
2017-11-25T08:58:21.149Z,1008.01
2017-11-25T08:59:21.036Z,1007.97
2017-11-25T09:00:21.053Z,1007.98
2017-11-25T09:01:20.976Z,1008.02
2017-11-25T09:02:20.965Z,1008.06
2017-11-25T09:03:20.922Z,1008.02
2017-11-25T09:04:20.983Z,1008.03
2017-11-25T09:05:20.854Z,1008.08
2017-11-25T09:06:20.890Z,1008.11
2017-11-25T09:07:20.790Z,1008.09
2017-11-25T09:08:20.803Z,1008.07
2017-11-25T09:09:20.741Z,1008.05
2017-11-25T09:10:20.713Z,1008.07
2017-11-25T09:11:20.673Z,1008.08
2017-11-25T09:12:20.732Z,1008.04
2017-11-25T09:13:20.610Z,1008.06
2017-11-25T09:14:20.641Z,1008.07
2017-11-25T09:15:20.555Z,1008.06
2017-11-25T09:16:20.554Z,1008.04
2017-11-25T09:17:20.486Z,1008.08
2017-11-25T09:18:20.565Z,1008.12
2017-11-25T09:19:20.429Z,1008.10
2017-11-25T09:20:20.478Z,1008.11
2017-11-25T09:21:20.368Z,1008.16
2017-11-25T09:22:20.422Z,1008.17
2017-11-25T09:23:20.309Z,1008.15
2017-11-25T09:24:20.303Z,1008.17
2017-11-25T09:25:20.249Z,1008.18
2017-11-25T09:26:20.315Z,1008.16
2017-11-25T09:27:20.187Z,1008.19
2017-11-25T09:28:20.248Z,1008.16
2017-11-25T09:29:20.125Z,1008.18
2017-11-25T09:30:20.137Z,1008.13
2017-11-25T09:31:20.065Z,1008.14
2017-11-25T09:32:20.050Z,1008.12
2017-11-25T09:33:20.006Z,1008.13
2017-11-25T09:34:20.065Z,1008.12
2017-11-25T09:35:19.941Z,1008.14
2017-11-25T09:36:19.979Z,1008.17
2017-11-25T09:37:19.882Z,1008.13
2017-11-25T09:38:19.892Z,1008.21
2017-11-25T09:39:19.823Z,1008.21
2017-11-25T09:40:19.900Z,1008.24
2017-11-25T09:41:19.772Z,1008.24
2017-11-25T09:42:19.815Z,1008.26
2017-11-25T09:43:19.704Z,1008.25
2017-11-25T09:44:19.723Z,1008.28
2017-11-25T09:45:19.639Z,1008.25
2017-11-25T09:46:19.640Z,1008.23
2017-11-25T09:47:19.580Z,1008.24
2017-11-25T09:48:19.658Z,1008.28
2017-11-25T09:49:19.522Z,1008.24
2017-11-25T09:50:19.572Z,1008.27
2017-11-25T09:51:19.457Z,1008.30
2017-11-25T09:52:19.480Z,1008.30
2017-11-25T09:53:19.401Z,1008.31
2017-11-25T09:54:19.505Z,1008.52
2017-11-25T09:55:19.342Z,1008.54
2017-11-25T09:56:19.400Z,1008.59
2017-11-25T09:57:19.281Z,1008.86
2017-11-25T09:58:19.313Z,1008.97
2017-11-25T09:59:19.224Z,1009.15
2017-11-25T10:00:19.362Z,1009.13
2017-11-25T10:01:19.168Z,1009.08
2017-11-25T10:02:19.247Z,1009.12
2017-11-25T10:03:19.113Z,1009.17
2017-11-25T10:04:19.148Z,1008.93
2017-11-25T10:05:19.070Z,1008.61
2017-11-25T10:06:19.063Z,1008.62
2017-11-25T10:07:19.017Z,1008.80
2017-11-25T10:08:19.073Z,1009.11
2017-11-25T10:09:18.966Z,1008.90
2017-11-25T10:10:18.988Z,1008.84
2017-11-25T10:11:18.918Z,1009.02
2017-11-25T10:12:19.000Z,1008.93
2017-11-25T10:13:18.873Z,1008.97
2017-11-25T10:14:18.910Z,1009.09
2017-11-25T10:15:18.832Z,1009.14
2017-11-25T10:16:18.926Z,1008.97
2017-11-25T10:17:18.793Z,1008.84
2017-11-25T10:18:18.838Z,1008.85
2017-11-25T10:19:18.745Z,1009.26
2017-11-25T10:20:18.751Z,1009.20
2017-11-25T10:21:18.698Z,1009.07
2017-11-25T10:22:18.763Z,1009.49
2017-11-25T10:23:18.660Z,1009.46
2017-11-25T10:24:18.676Z,1009.39
2017-11-25T10:25:18.621Z,1009.47
2017-11-25T10:26:18.689Z,1009.26
2017-11-25T10:27:18.584Z,1008.87
2017-11-25T10:28:18.598Z,1008.91
2017-11-25T10:29:18.544Z,1008.83
2017-11-25T10:30:18.609Z,1008.76
2017-11-25T10:31:18.507Z,1008.74
2017-11-25T10:32:18.520Z,1008.72
2017-11-25T10:33:18.474Z,1008.72
2017-11-25T10:34:18.537Z,1008.77
2017-11-25T10:35:18.430Z,1008.75
2017-11-25T10:36:18.445Z,1008.71
2017-11-25T10:37:18.392Z,1008.73
2017-11-25T10:38:18.459Z,1008.70
2017-11-25T10:39:18.349Z,1008.72
2017-11-25T10:40:18.376Z,1008.73
2017-11-25T10:41:18.304Z,1008.75
2017-11-25T10:42:18.384Z,1008.74
2017-11-25T10:43:18.268Z,1008.75
2017-11-25T10:44:18.295Z,1008.78
2017-11-25T10:45:18.228Z,1008.81
2017-11-25T10:46:18.315Z,1008.84
2017-11-25T10:47:18.184Z,1008.81
2017-11-25T10:48:18.227Z,1008.86
2017-11-25T10:49:18.138Z,1008.90
2017-11-25T10:50:18.138Z,1008.90
2017-11-25T10:51:18.102Z,1008.96
2017-11-25T10:52:18.152Z,1008.83
2017-11-25T10:53:18.054Z,1008.85
2017-11-25T10:54:18.060Z,1008.79
2017-11-25T10:55:18.017Z,1008.78
2017-11-25T10:56:18.075Z,1008.77
2017-11-25T10:57:17.969Z,1008.81
2017-11-25T10:58:17.983Z,1008.73
2017-11-25T10:59:17.920Z,1008.72
2017-11-25T11:00:17.896Z,1008.75
2017-11-25T11:01:17.873Z,1008.74
2017-11-25T11:02:17.928Z,1008.77
2017-11-25T11:03:17.828Z,1008.80
2017-11-25T11:04:17.823Z,1008.75
2017-11-25T11:05:17.786Z,1008.73
2017-11-25T11:06:17.836Z,1008.73
2017-11-25T11:07:17.733Z,1008.79
2017-11-25T11:08:17.745Z,1008.87
2017-11-25T11:09:17.691Z,1008.85
2017-11-25T11:10:17.761Z,1008.85
2017-11-25T11:11:17.641Z,1008.85
2017-11-25T11:12:17.672Z,1008.84
2017-11-25T11:13:17.594Z,1008.84
2017-11-25T11:14:17.583Z,1008.88
2017-11-25T11:15:17.545Z,1008.91
2017-11-25T11:16:17.597Z,1008.87
2017-11-25T11:17:17.500Z,1008.92
2017-11-25T11:18:17.509Z,1008.90
2017-11-25T11:19:17.450Z,1009.02
2017-11-25T11:20:17.521Z,1008.94
2017-11-25T11:21:17.413Z,1008.99
2017-11-25T11:22:17.433Z,1008.98
2017-11-25T11:23:17.356Z,1008.91
2017-11-25T11:24:17.345Z,1008.85
2017-11-25T11:25:17.306Z,1008.92
2017-11-25T11:26:17.360Z,1009.02
2017-11-25T11:27:17.260Z,1009.18
2017-11-25T11:28:17.270Z,1009.37
2017-11-25T11:29:17.215Z,1009.50
2017-11-25T11:30:17.284Z,1009.70
2017-11-25T11:31:17.168Z,1009.80
2017-11-25T11:32:17.198Z,1009.84
2017-11-25T11:33:17.119Z,1009.87
2017-11-25T11:34:17.103Z,1009.94
2017-11-25T11:35:17.072Z,1009.93
2017-11-25T11:36:17.119Z,1009.96
2017-11-25T11:37:17.029Z,1009.72
2017-11-25T11:38:17.039Z,1009.91
2017-11-25T11:39:16.986Z,1009.68
2017-11-25T11:40:17.046Z,1009.68
2017-11-25T11:41:16.956Z,1009.14
2017-11-25T11:42:16.957Z,1009.25
2017-11-25T11:43:16.911Z,1009.61
2017-11-25T11:44:16.972Z,1009.53
2017-11-25T11:45:16.868Z,1009.48
2017-11-25T11:46:16.883Z,1009.54
2017-11-25T11:47:16.834Z,1009.63
2017-11-25T11:48:16.897Z,1009.75
2017-11-25T11:49:16.790Z,1009.76
2017-11-25T11:50:16.807Z,1010.03
2017-11-25T11:51:16.745Z,1010.06
2017-11-25T11:52:16.821Z,1010.07
2017-11-25T11:53:16.714Z,1010.12
2017-11-25T11:54:16.733Z,1010.22
2017-11-25T11:55:16.681Z,1010.14
2017-11-25T11:56:16.748Z,1009.98
2017-11-25T11:57:16.638Z,1010.14
2017-11-25T11:58:16.762Z,1009.92
2017-11-25T11:59:16.605Z,1009.16
2017-11-25T12:00:16.672Z,1009.17
2017-11-25T12:01:16.574Z,1009.15
2017-11-25T12:02:16.688Z,1009.09
2017-11-25T12:03:16.532Z,1009.07
2017-11-25T12:04:16.599Z,1009.02
2017-11-25T12:05:16.501Z,1009.05